sensor_id;sensor_type;location;lat;lon;timestamp;temperature;humidity
780;DHT22;373;49.342;8.146;2023-07-13T00:00:30;20.30;1.00
780;DHT22;373;49.342;8.146;2023-07-13T00:02:58;20.20;1.00
780;DHT22;373;49.342;8.146;2023-07-13T00:05:25;20.10;54.10
780;DHT22;373;49.342;8.146;2023-07-13T00:07:53;20.20;99.90
780;DHT22;373;49.342;8.146;2023-07-13T00:10:20;20.10;55.90
780;DHT22;373;49.342;8.146;2023-07-13T00:12:49;20.00;99.90
780;DHT22;373;49.342;8.146;2023-07-13T00:15:19;19.80;99.90
780;DHT22;373;49.342;8.146;2023-07-13T00:17:48;19.90;99.90
780;DHT22;373;49.342;8.146;2023-07-13T00:20:16;19.90;99.90
780;DHT22;373;49.342;8.146;2023-07-13T00:22:43;19.90;99.90
780;DHT22;373;49.342;8.146;2023-07-13T00:25:11;19.80;64.70
780;DHT22;373;49.342;8.146;2023-07-13T00:27:38;19.80;60.90
780;DHT22;373;49.342;8.146;2023-07-13T00:30:07;19.90;1.00
780;DHT22;373;49.342;8.146;2023-07-13T00:32:35;20.00;1.00
780;DHT22;373;49.342;8.146;2023-07-13T00:35:03;20.00;1.00
780;DHT22;373;49.342;8.146;2023-07-13T00:37:30;19.70;1.00
780;DHT22;373;49.342;8.146;2023-07-13T00:39:58;19.70;1.00
780;DHT22;373;49.342;8.146;2023-07-13T00:42:25;19.70;99.90
780;DHT22;373;49.342;8.146;2023-07-13T00:45:03;19.80;1.00
780;DHT22;373;49.342;8.146;2023-07-13T00:47:32;19.60;1.00
780;DHT22;373;49.342;8.146;2023-07-13T00:50:00;19.40;34.60
780;DHT22;373;49.342;8.146;2023-07-13T00:52:27;19.50;99.90
780;DHT22;373;49.342;8.146;2023-07-13T00:54:56;19.30;99.90
780;DHT22;373;49.342;8.146;2023-07-13T00:57:23;19.50;94.80
780;DHT22;373;49.342;8.146;2023-07-13T00:59:54;19.40;99.90
780;DHT22;373;49.342;8.146;2023-07-13T01:02:24;19.20;99.90
780;DHT22;373;49.342;8.146;2023-07-13T01:04:53;19.20;99.90
780;DHT22;373;49.342;8.146;2023-07-13T01:07:21;19.20;99.90
780;DHT22;373;49.342;8.146;2023-07-13T01:09:48;19.30;99.90
780;DHT22;373;49.342;8.146;2023-07-13T01:12:30;19.10;99.90
780;DHT22;373;49.342;8.146;2023-07-13T01:18:58;18.80;1.00
780;DHT22;373;49.342;8.146;2023-07-13T01:22:00;18.70;1.00
780;DHT22;373;49.342;8.146;2023-07-13T01:24:58;18.60;31.80
780;DHT22;373;49.342;8.146;2023-07-13T01:30:54;18.70;1.00
780;DHT22;373;49.342;8.146;2023-07-13T01:33:52;18.70;1.00
780;DHT22;373;49.342;8.146;2023-07-13T01:36:37;18.60;1.00
780;DHT22;373;49.342;8.146;2023-07-13T01:39:45;18.40;99.90
780;DHT22;373;49.342;8.146;2023-07-13T01:43:00;18.40;1.00
780;DHT22;373;49.342;8.146;2023-07-13T01:45:47;18.40;1.00
780;DHT22;373;49.342;8.146;2023-07-13T01:48:41;18.30;1.00
780;DHT22;373;49.342;8.146;2023-07-13T01:51:56;18.20;99.90
780;DHT22;373;49.342;8.146;2023-07-13T01:54:46;18.10;1.00
780;DHT22;373;49.342;8.146;2023-07-13T02:01:07;18.30;99.90
780;DHT22;373;49.342;8.146;2023-07-13T02:03:47;18.10;1.00
780;DHT22;373;49.342;8.146;2023-07-13T02:06:59;18.10;99.90
780;DHT22;373;49.342;8.146;2023-07-13T02:09:44;17.90;1.00
780;DHT22;373;49.342;8.146;2023-07-13T02:12:37;18.10;1.00
780;DHT22;373;49.342;8.146;2023-07-13T02:18:15;17.80;99.90
780;DHT22;373;49.342;8.146;2023-07-13T02:20:58;17.80;1.00
780;DHT22;373;49.342;8.146;2023-07-13T02:23:47;17.80;99.90
780;DHT22;373;49.342;8.146;2023-07-13T02:26:24;17.80;99.90
780;DHT22;373;49.342;8.146;2023-07-13T02:29:11;17.90;1.00
780;DHT22;373;49.342;8.146;2023-07-13T02:31:45;17.80;1.00
780;DHT22;373;49.342;8.146;2023-07-13T02:38:16;17.80;1.00
780;DHT22;373;49.342;8.146;2023-07-13T02:41:16;17.60;99.90
780;DHT22;373;49.342;8.146;2023-07-13T02:44:17;17.50;1.00
780;DHT22;373;49.342;8.146;2023-07-13T02:47:43;17.60;1.00
780;DHT22;373;49.342;8.146;2023-07-13T02:50:13;17.50;99.90
780;DHT22;373;49.342;8.146;2023-07-13T02:52:55;17.50;1.00
780;DHT22;373;49.342;8.146;2023-07-13T02:55:30;17.60;99.90
780;DHT22;373;49.342;8.146;2023-07-13T02:58:18;17.60;1.00
780;DHT22;373;49.342;8.146;2023-07-13T03:00:57;17.40;99.90
780;DHT22;373;49.342;8.146;2023-07-13T03:03:32;17.40;1.00
780;DHT22;373;49.342;8.146;2023-07-13T03:09:05;17.40;1.00
780;DHT22;373;49.342;8.146;2023-07-13T03:11:42;17.10;1.00
780;DHT22;373;49.342;8.146;2023-07-13T03:14:50;17.20;1.00
780;DHT22;373;49.342;8.146;2023-07-13T03:17:38;17.20;1.00
780;DHT22;373;49.342;8.146;2023-07-13T03:20:19;17.30;99.90
780;DHT22;373;49.342;8.146;2023-07-13T03:23:05;17.20;1.00
780;DHT22;373;49.342;8.146;2023-07-13T03:26:08;17.30;99.90
780;DHT22;373;49.342;8.146;2023-07-13T03:28:40;17.30;99.90
780;DHT22;373;49.342;8.146;2023-07-13T03:31:44;17.20;1.00
780;DHT22;373;49.342;8.146;2023-07-13T03:34:41;17.20;99.90
780;DHT22;373;49.342;8.146;2023-07-13T04:10:13;17.00;92.10
780;DHT22;373;49.342;8.146;2023-07-13T04:12:40;16.80;1.00
780;DHT22;373;49.342;8.146;2023-07-13T04:15:08;16.90;99.90
780;DHT22;373;49.342;8.146;2023-07-13T04:17:35;17.10;1.00
780;DHT22;373;49.342;8.146;2023-07-13T04:20:03;17.10;99.90
780;DHT22;373;49.342;8.146;2023-07-13T04:22:31;17.30;1.00
780;DHT22;373;49.342;8.146;2023-07-13T04:24:58;17.40;99.90
780;DHT22;373;49.342;8.146;2023-07-13T04:27:26;17.40;99.90
780;DHT22;373;49.342;8.146;2023-07-13T04:29:54;17.50;40.40
780;DHT22;373;49.342;8.146;2023-07-13T04:32:21;17.70;1.00
780;DHT22;373;49.342;8.146;2023-07-13T04:34:49;17.80;21.60
780;DHT22;373;49.342;8.146;2023-07-13T04:37:20;18.00;99.90
780;DHT22;373;49.342;8.146;2023-07-13T04:39:47;18.30;1.00
780;DHT22;373;49.342;8.146;2023-07-13T04:42:14;18.70;1.00
780;DHT22;373;49.342;8.146;2023-07-13T04:44:47;18.70;99.90
780;DHT22;373;49.342;8.146;2023-07-13T04:47:14;18.80;99.90
780;DHT22;373;49.342;8.146;2023-07-13T04:49:41;18.70;99.90
780;DHT22;373;49.342;8.146;2023-07-13T04:52:11;18.70;99.90
780;DHT22;373;49.342;8.146;2023-07-13T04:54:38;18.80;99.90
780;DHT22;373;49.342;8.146;2023-07-13T04:57:06;19.00;99.90
780;DHT22;373;49.342;8.146;2023-07-13T04:59:34;19.20;11.60
780;DHT22;373;49.342;8.146;2023-07-13T05:02:02;19.10;46.60
780;DHT22;373;49.342;8.146;2023-07-13T05:04:30;19.00;99.90
780;DHT22;373;49.342;8.146;2023-07-13T05:06:57;18.90;99.90
780;DHT22;373;49.342;8.146;2023-07-13T05:09:24;18.80;99.90
780;DHT22;373;49.342;8.146;2023-07-13T05:11:51;19.30;44.60
780;DHT22;373;49.342;8.146;2023-07-13T05:14:18;19.50;1.00
780;DHT22;373;49.342;8.146;2023-07-13T05:16:46;19.70;1.00
780;DHT22;373;49.342;8.146;2023-07-13T05:19:14;19.80;1.00
780;DHT22;373;49.342;8.146;2023-07-13T05:21:41;19.90;1.00
780;DHT22;373;49.342;8.146;2023-07-13T05:24:08;19.80;1.00
780;DHT22;373;49.342;8.146;2023-07-13T05:26:36;19.70;1.00
780;DHT22;373;49.342;8.146;2023-07-13T05:29:03;19.60;1.00
780;DHT22;373;49.342;8.146;2023-07-13T05:31:31;19.80;1.00
780;DHT22;373;49.342;8.146;2023-07-13T05:33:58;19.70;1.00
780;DHT22;373;49.342;8.146;2023-07-13T05:36:31;19.80;1.00
780;DHT22;373;49.342;8.146;2023-07-13T05:38:59;20.30;1.00
780;DHT22;373;49.342;8.146;2023-07-13T05:41:26;20.30;1.00
780;DHT22;373;49.342;8.146;2023-07-13T05:43:54;20.40;1.00
780;DHT22;373;49.342;8.146;2023-07-13T05:46:21;20.30;1.00
780;DHT22;373;49.342;8.146;2023-07-13T05:48:48;20.30;1.00
780;DHT22;373;49.342;8.146;2023-07-13T05:51:15;20.00;1.00
780;DHT22;373;49.342;8.146;2023-07-13T05:53:44;19.80;1.00
780;DHT22;373;49.342;8.146;2023-07-13T05:56:11;20.20;1.00
780;DHT22;373;49.342;8.146;2023-07-13T05:58:39;20.50;1.00
780;DHT22;373;49.342;8.146;2023-07-13T06:01:09;20.70;1.00
780;DHT22;373;49.342;8.146;2023-07-13T06:03:37;20.90;1.00
780;DHT22;373;49.342;8.146;2023-07-13T06:06:05;21.00;99.90
780;DHT22;373;49.342;8.146;2023-07-13T06:08:33;20.90;99.90
780;DHT22;373;49.342;8.146;2023-07-13T06:11:06;21.00;99.90
780;DHT22;373;49.342;8.146;2023-07-13T06:13:37;20.90;99.90
780;DHT22;373;49.342;8.146;2023-07-13T06:16:04;20.80;99.90
780;DHT22;373;49.342;8.146;2023-07-13T06:18:33;21.00;99.90
780;DHT22;373;49.342;8.146;2023-07-13T06:21:00;21.20;99.90
780;DHT22;373;49.342;8.146;2023-07-13T06:23:27;21.40;99.90
780;DHT22;373;49.342;8.146;2023-07-13T06:25:54;21.40;99.90
780;DHT22;373;49.342;8.146;2023-07-13T06:28:23;21.40;99.90
780;DHT22;373;49.342;8.146;2023-07-13T06:30:50;21.10;99.90
780;DHT22;373;49.342;8.146;2023-07-13T06:33:17;21.00;99.90
780;DHT22;373;49.342;8.146;2023-07-13T06:35:45;21.20;99.90
780;DHT22;373;49.342;8.146;2023-07-13T06:38:12;21.40;99.90
780;DHT22;373;49.342;8.146;2023-07-13T06:40:39;21.40;99.90
780;DHT22;373;49.342;8.146;2023-07-13T06:43:06;21.20;99.90
780;DHT22;373;49.342;8.146;2023-07-13T06:45:36;21.50;99.90
780;DHT22;373;49.342;8.146;2023-07-13T06:48:07;21.90;99.90
780;DHT22;373;49.342;8.146;2023-07-13T06:50:37;21.90;99.90
780;DHT22;373;49.342;8.146;2023-07-13T06:53:04;21.90;99.90
780;DHT22;373;49.342;8.146;2023-07-13T06:55:32;22.30;99.90
780;DHT22;373;49.342;8.146;2023-07-13T06:57:59;22.80;99.90
780;DHT22;373;49.342;8.146;2023-07-13T07:00:27;23.10;99.90
780;DHT22;373;49.342;8.146;2023-07-13T07:02:55;23.20;99.90
780;DHT22;373;49.342;8.146;2023-07-13T07:05:23;23.50;99.90
780;DHT22;373;49.342;8.146;2023-07-13T07:07:50;23.80;99.90
780;DHT22;373;49.342;8.146;2023-07-13T07:10:18;23.60;99.90
780;DHT22;373;49.342;8.146;2023-07-13T07:12:46;24.10;99.90
780;DHT22;373;49.342;8.146;2023-07-13T07:15:13;24.40;99.90
780;DHT22;373;49.342;8.146;2023-07-13T07:17:40;24.90;99.90
780;DHT22;373;49.342;8.146;2023-07-13T07:20:10;24.70;99.90
780;DHT22;373;49.342;8.146;2023-07-13T07:22:37;25.10;93.00
780;DHT22;373;49.342;8.146;2023-07-13T07:25:05;25.20;72.80
780;DHT22;373;49.342;8.146;2023-07-13T07:27:32;24.80;64.50
780;DHT22;373;49.342;8.146;2023-07-13T07:30:00;24.70;63.50
780;DHT22;373;49.342;8.146;2023-07-13T07:32:29;24.70;65.00
780;DHT22;373;49.342;8.146;2023-07-13T07:34:56;24.80;67.60
780;DHT22;373;49.342;8.146;2023-07-13T07:37:25;24.80;55.60
780;DHT22;373;49.342;8.146;2023-07-13T07:39:52;24.40;55.20
780;DHT22;373;49.342;8.146;2023-07-13T07:42:19;24.10;61.90
780;DHT22;373;49.342;8.146;2023-07-13T07:44:47;24.40;59.20
780;DHT22;373;49.342;8.146;2023-07-13T07:47:14;25.10;62.60
780;DHT22;373;49.342;8.146;2023-07-13T07:49:41;24.90;41.70
780;DHT22;373;49.342;8.146;2023-07-13T07:52:08;25.40;47.90
780;DHT22;373;49.342;8.146;2023-07-13T07:54:36;25.20;38.00
780;DHT22;373;49.342;8.146;2023-07-13T07:57:04;25.10;53.80
780;DHT22;373;49.342;8.146;2023-07-13T07:59:31;25.20;37.20
780;DHT22;373;49.342;8.146;2023-07-13T08:01:58;25.60;35.60
780;DHT22;373;49.342;8.146;2023-07-13T08:04:27;26.00;30.30
780;DHT22;373;49.342;8.146;2023-07-13T08:06:55;26.00;25.10
780;DHT22;373;49.342;8.146;2023-07-13T08:09:23;26.00;26.80
780;DHT22;373;49.342;8.146;2023-07-13T08:11:51;25.90;23.70
780;DHT22;373;49.342;8.146;2023-07-13T08:14:20;26.20;23.30
780;DHT22;373;49.342;8.146;2023-07-13T08:16:47;27.00;15.80
780;DHT22;373;49.342;8.146;2023-07-13T08:19:15;27.20;1.80
780;DHT22;373;49.342;8.146;2023-07-13T08:21:42;27.40;1.00
780;DHT22;373;49.342;8.146;2023-07-13T08:24:09;27.20;1.00
780;DHT22;373;49.342;8.146;2023-07-13T08:26:37;26.50;1.00
780;DHT22;373;49.342;8.146;2023-07-13T08:29:05;26.40;1.00
780;DHT22;373;49.342;8.146;2023-07-13T08:31:32;25.20;1.00
780;DHT22;373;49.342;8.146;2023-07-13T08:34:00;24.90;1.00
780;DHT22;373;49.342;8.146;2023-07-13T08:36:27;25.40;8.20
780;DHT22;373;49.342;8.146;2023-07-13T08:38:54;26.30;4.00
780;DHT22;373;49.342;8.146;2023-07-13T08:41:21;26.90;1.00
780;DHT22;373;49.342;8.146;2023-07-13T08:43:51;27.30;1.00
780;DHT22;373;49.342;8.146;2023-07-13T08:46:25;27.70;1.00
780;DHT22;373;49.342;8.146;2023-07-13T08:48:56;28.00;1.00
780;DHT22;373;49.342;8.146;2023-07-13T08:51:31;28.20;1.00
780;DHT22;373;49.342;8.146;2023-07-13T08:54:02;27.60;1.00
780;DHT22;373;49.342;8.146;2023-07-13T08:56:30;27.70;1.00
780;DHT22;373;49.342;8.146;2023-07-13T08:59:00;27.70;1.00
780;DHT22;373;49.342;8.146;2023-07-13T09:01:57;27.60;1.00
780;DHT22;373;49.342;8.146;2023-07-13T09:04:29;27.50;1.00
780;DHT22;373;49.342;8.146;2023-07-13T09:07:04;27.40;1.00
780;DHT22;373;49.342;8.146;2023-07-13T09:09:39;26.90;1.00
780;DHT22;373;49.342;8.146;2023-07-13T09:12:16;26.50;1.00
780;DHT22;373;49.342;8.146;2023-07-13T09:14:47;27.00;1.00
780;DHT22;373;49.342;8.146;2023-07-13T09:17:20;26.90;1.00
780;DHT22;373;49.342;8.146;2023-07-13T09:19:53;27.20;1.00
780;DHT22;373;49.342;8.146;2023-07-13T09:22:24;27.50;1.00
780;DHT22;373;49.342;8.146;2023-07-13T09:24:57;27.40;1.00
780;DHT22;373;49.342;8.146;2023-07-13T09:27:30;26.90;1.00
780;DHT22;373;49.342;8.146;2023-07-13T09:30:04;26.20;1.00
780;DHT22;373;49.342;8.146;2023-07-13T09:32:38;25.30;1.00
780;DHT22;373;49.342;8.146;2023-07-13T09:35:10;25.10;1.00
780;DHT22;373;49.342;8.146;2023-07-13T09:37:38;26.00;1.00
780;DHT22;373;49.342;8.146;2023-07-13T09:40:13;26.60;1.00
780;DHT22;373;49.342;8.146;2023-07-13T09:42:44;27.00;1.00
780;DHT22;373;49.342;8.146;2023-07-13T09:45:17;26.50;1.00
780;DHT22;373;49.342;8.146;2023-07-13T09:47:59;26.60;1.00
780;DHT22;373;49.342;8.146;2023-07-13T09:50:26;27.20;1.00
780;DHT22;373;49.342;8.146;2023-07-13T09:52:55;27.10;1.00
780;DHT22;373;49.342;8.146;2023-07-13T09:55:27;27.10;1.00
780;DHT22;373;49.342;8.146;2023-07-13T09:57:55;27.00;1.00
780;DHT22;373;49.342;8.146;2023-07-13T10:00:25;26.90;1.00
780;DHT22;373;49.342;8.146;2023-07-13T10:03:03;26.70;1.00
780;DHT22;373;49.342;8.146;2023-07-13T10:05:38;27.20;1.00
780;DHT22;373;49.342;8.146;2023-07-13T10:08:20;27.50;1.00
780;DHT22;373;49.342;8.146;2023-07-13T10:10:53;27.20;1.00
780;DHT22;373;49.342;8.146;2023-07-13T10:13:33;27.60;1.00
780;DHT22;373;49.342;8.146;2023-07-13T10:16:03;27.40;1.00
780;DHT22;373;49.342;8.146;2023-07-13T10:18:42;27.00;1.00
780;DHT22;373;49.342;8.146;2023-07-13T10:21:12;26.80;1.00
780;DHT22;373;49.342;8.146;2023-07-13T10:23:40;26.70;1.00
780;DHT22;373;49.342;8.146;2023-07-13T10:26:16;26.40;1.00
780;DHT22;373;49.342;8.146;2023-07-13T10:28:47;25.70;1.00
780;DHT22;373;49.342;8.146;2023-07-13T10:31:17;25.50;1.00
780;DHT22;373;49.342;8.146;2023-07-13T10:33:46;25.80;1.00
780;DHT22;373;49.342;8.146;2023-07-13T10:36:23;25.40;1.00
780;DHT22;373;49.342;8.146;2023-07-13T10:38:56;25.40;1.00
780;DHT22;373;49.342;8.146;2023-07-13T10:41:26;26.10;1.00
780;DHT22;373;49.342;8.146;2023-07-13T10:43:55;26.60;1.00
780;DHT22;373;49.342;8.146;2023-07-13T10:46:25;26.70;1.00
780;DHT22;373;49.342;8.146;2023-07-13T10:49:07;26.70;1.00
780;DHT22;373;49.342;8.146;2023-07-13T10:51:35;26.90;1.00
780;DHT22;373;49.342;8.146;2023-07-13T10:54:17;27.10;1.00
780;DHT22;373;49.342;8.146;2023-07-13T10:56:45;27.10;1.00
780;DHT22;373;49.342;8.146;2023-07-13T10:59:17;27.40;1.00
780;DHT22;373;49.342;8.146;2023-07-13T11:01:51;27.50;1.00
780;DHT22;373;49.342;8.146;2023-07-13T11:04:21;26.90;1.00
780;DHT22;373;49.342;8.146;2023-07-13T11:06:53;27.40;1.00
780;DHT22;373;49.342;8.146;2023-07-13T11:09:49;28.00;1.00
780;DHT22;373;49.342;8.146;2023-07-13T11:12:51;28.50;1.00
780;DHT22;373;49.342;8.146;2023-07-13T11:15:43;27.90;1.00
780;DHT22;373;49.342;8.146;2023-07-13T11:18:21;26.90;1.00
780;DHT22;373;49.342;8.146;2023-07-13T11:20:50;26.50;1.00
780;DHT22;373;49.342;8.146;2023-07-13T11:23:35;26.90;1.00
780;DHT22;373;49.342;8.146;2023-07-13T11:26:39;27.20;1.00
780;DHT22;373;49.342;8.146;2023-07-13T11:29:09;27.80;1.00
780;DHT22;373;49.342;8.146;2023-07-13T11:31:36;28.50;1.00
780;DHT22;373;49.342;8.146;2023-07-13T11:34:13;28.60;1.00
780;DHT22;373;49.342;8.146;2023-07-13T11:36:44;28.40;1.00
780;DHT22;373;49.342;8.146;2023-07-13T11:39:18;27.90;1.00
780;DHT22;373;49.342;8.146;2023-07-13T11:41:50;28.10;1.00
780;DHT22;373;49.342;8.146;2023-07-13T11:44:22;28.20;1.00
780;DHT22;373;49.342;8.146;2023-07-13T11:46:51;28.20;1.00
780;DHT22;373;49.342;8.146;2023-07-13T11:49:20;27.90;1.00
780;DHT22;373;49.342;8.146;2023-07-13T11:51:49;28.20;1.00
780;DHT22;373;49.342;8.146;2023-07-13T11:54:24;28.60;1.00
780;DHT22;373;49.342;8.146;2023-07-13T11:56:54;28.00;1.00
780;DHT22;373;49.342;8.146;2023-07-13T11:59:23;28.30;1.00
780;DHT22;373;49.342;8.146;2023-07-13T12:01:52;28.30;1.00
780;DHT22;373;49.342;8.146;2023-07-13T12:04:23;28.50;1.00
780;DHT22;373;49.342;8.146;2023-07-13T12:06:58;28.00;1.00
780;DHT22;373;49.342;8.146;2023-07-13T12:09:30;27.70;1.00
780;DHT22;373;49.342;8.146;2023-07-13T12:11:57;27.60;1.00
780;DHT22;373;49.342;8.146;2023-07-13T12:14:26;27.50;1.00
780;DHT22;373;49.342;8.146;2023-07-13T12:16:54;27.50;1.00
780;DHT22;373;49.342;8.146;2023-07-13T12:19:25;27.60;1.00
780;DHT22;373;49.342;8.146;2023-07-13T12:21:55;27.90;1.00
780;DHT22;373;49.342;8.146;2023-07-13T12:24:25;28.30;1.00
780;DHT22;373;49.342;8.146;2023-07-13T12:26:54;28.50;1.00
780;DHT22;373;49.342;8.146;2023-07-13T12:29:22;28.30;1.00
780;DHT22;373;49.342;8.146;2023-07-13T12:31:50;28.00;1.00
780;DHT22;373;49.342;8.146;2023-07-13T12:34:20;27.90;1.00
780;DHT22;373;49.342;8.146;2023-07-13T12:36:49;27.80;1.00
780;DHT22;373;49.342;8.146;2023-07-13T12:39:19;28.00;1.00
780;DHT22;373;49.342;8.146;2023-07-13T12:41:50;27.40;1.00
780;DHT22;373;49.342;8.146;2023-07-13T12:44:28;27.70;1.00
780;DHT22;373;49.342;8.146;2023-07-13T12:46:58;27.90;1.00
780;DHT22;373;49.342;8.146;2023-07-13T12:49:29;28.20;1.00
780;DHT22;373;49.342;8.146;2023-07-13T12:52:01;28.50;1.00
780;DHT22;373;49.342;8.146;2023-07-13T12:54:29;28.40;1.00
780;DHT22;373;49.342;8.146;2023-07-13T12:57:00;28.80;1.00
780;DHT22;373;49.342;8.146;2023-07-13T12:59:32;28.50;1.00
780;DHT22;373;49.342;8.146;2023-07-13T13:02:28;28.40;1.00
780;DHT22;373;49.342;8.146;2023-07-13T13:04:56;28.20;1.00
780;DHT22;373;49.342;8.146;2023-07-13T13:07:25;27.80;1.00
780;DHT22;373;49.342;8.146;2023-07-13T13:09:52;28.00;1.00
780;DHT22;373;49.342;8.146;2023-07-13T13:12:22;27.90;1.00
780;DHT22;373;49.342;8.146;2023-07-13T13:14:52;28.30;1.00
780;DHT22;373;49.342;8.146;2023-07-13T13:17:21;28.20;1.00
780;DHT22;373;49.342;8.146;2023-07-13T13:19:50;28.20;1.00
780;DHT22;373;49.342;8.146;2023-07-13T13:22:19;28.50;1.00
780;DHT22;373;49.342;8.146;2023-07-13T13:24:46;28.90;1.00
780;DHT22;373;49.342;8.146;2023-07-13T13:27:15;28.80;1.00
780;DHT22;373;49.342;8.146;2023-07-13T13:29:46;28.80;1.00
780;DHT22;373;49.342;8.146;2023-07-13T13:32:14;29.20;1.00
780;DHT22;373;49.342;8.146;2023-07-13T13:34:42;29.50;1.00
780;DHT22;373;49.342;8.146;2023-07-13T13:37:18;29.00;1.00
780;DHT22;373;49.342;8.146;2023-07-13T13:39:47;27.50;1.00
780;DHT22;373;49.342;8.146;2023-07-13T13:42:14;27.50;1.00
780;DHT22;373;49.342;8.146;2023-07-13T13:44:41;27.60;1.00
780;DHT22;373;49.342;8.146;2023-07-13T13:47:25;27.20;1.00
780;DHT22;373;49.342;8.146;2023-07-13T13:49:54;27.20;1.00
780;DHT22;373;49.342;8.146;2023-07-13T13:52:21;27.10;1.00
780;DHT22;373;49.342;8.146;2023-07-13T13:54:48;26.90;1.00
780;DHT22;373;49.342;8.146;2023-07-13T13:57:16;26.90;1.00
780;DHT22;373;49.342;8.146;2023-07-13T13:59:43;27.00;1.00
780;DHT22;373;49.342;8.146;2023-07-13T14:02:22;27.10;1.00
780;DHT22;373;49.342;8.146;2023-07-13T14:04:54;27.00;1.00
780;DHT22;373;49.342;8.146;2023-07-13T14:07:21;26.90;1.00
780;DHT22;373;49.342;8.146;2023-07-13T14:09:49;27.00;1.00
780;DHT22;373;49.342;8.146;2023-07-13T14:12:16;27.30;1.00
780;DHT22;373;49.342;8.146;2023-07-13T14:14:43;27.50;1.00
780;DHT22;373;49.342;8.146;2023-07-13T14:17:21;27.50;1.00
780;DHT22;373;49.342;8.146;2023-07-13T14:19:49;27.80;1.00
780;DHT22;373;49.342;8.146;2023-07-13T14:22:23;28.30;1.00
780;DHT22;373;49.342;8.146;2023-07-13T14:24:51;28.30;1.00
780;DHT22;373;49.342;8.146;2023-07-13T14:27:19;28.30;1.00
780;DHT22;373;49.342;8.146;2023-07-13T14:29:46;28.20;1.00
780;DHT22;373;49.342;8.146;2023-07-13T14:32:13;28.30;1.00
780;DHT22;373;49.342;8.146;2023-07-13T14:34:42;28.00;1.00
780;DHT22;373;49.342;8.146;2023-07-13T14:37:13;27.90;1.00
780;DHT22;373;49.342;8.146;2023-07-13T14:39:42;27.90;1.00
780;DHT22;373;49.342;8.146;2023-07-13T14:42:10;27.90;1.00
780;DHT22;373;49.342;8.146;2023-07-13T14:44:38;27.60;1.00
780;DHT22;373;49.342;8.146;2023-07-13T14:47:07;27.80;1.00
780;DHT22;373;49.342;8.146;2023-07-13T14:49:36;27.90;1.00
780;DHT22;373;49.342;8.146;2023-07-13T14:52:12;27.50;1.00
780;DHT22;373;49.342;8.146;2023-07-13T14:54:40;27.10;1.00
780;DHT22;373;49.342;8.146;2023-07-13T14:57:10;27.00;1.00
780;DHT22;373;49.342;8.146;2023-07-13T14:59:38;27.30;1.00
780;DHT22;373;49.342;8.146;2023-07-13T15:02:14;27.20;1.00
780;DHT22;373;49.342;8.146;2023-07-13T15:04:42;27.10;1.00
780;DHT22;373;49.342;8.146;2023-07-13T15:07:11;27.30;1.00
780;DHT22;373;49.342;8.146;2023-07-13T15:09:39;27.40;1.00
780;DHT22;373;49.342;8.146;2023-07-13T15:12:07;27.60;1.00
780;DHT22;373;49.342;8.146;2023-07-13T15:14:34;28.10;1.00
780;DHT22;373;49.342;8.146;2023-07-13T15:17:01;28.00;1.00
780;DHT22;373;49.342;8.146;2023-07-13T15:19:28;27.90;1.00
780;DHT22;373;49.342;8.146;2023-07-13T15:21:57;27.60;1.00
780;DHT22;373;49.342;8.146;2023-07-13T15:24:25;27.40;1.00
780;DHT22;373;49.342;8.146;2023-07-13T15:26:52;27.20;1.00
780;DHT22;373;49.342;8.146;2023-07-13T15:29:22;27.20;1.00
780;DHT22;373;49.342;8.146;2023-07-13T15:31:49;27.30;1.00
780;DHT22;373;49.342;8.146;2023-07-13T15:34:20;27.60;1.00
780;DHT22;373;49.342;8.146;2023-07-13T15:36:51;28.00;1.00
780;DHT22;373;49.342;8.146;2023-07-13T15:39:19;27.80;1.00
780;DHT22;373;49.342;8.146;2023-07-13T15:41:47;27.50;1.00
780;DHT22;373;49.342;8.146;2023-07-13T15:44:24;27.40;1.00
780;DHT22;373;49.342;8.146;2023-07-13T15:46:52;27.40;1.00
780;DHT22;373;49.342;8.146;2023-07-13T15:49:19;26.90;1.00
780;DHT22;373;49.342;8.146;2023-07-13T15:51:47;26.90;1.00
780;DHT22;373;49.342;8.146;2023-07-13T15:54:16;27.10;1.00
780;DHT22;373;49.342;8.146;2023-07-13T15:56:45;27.40;1.00
780;DHT22;373;49.342;8.146;2023-07-13T15:59:15;27.20;1.00
780;DHT22;373;49.342;8.146;2023-07-13T16:01:42;27.00;1.00
780;DHT22;373;49.342;8.146;2023-07-13T16:04:12;26.80;1.00
780;DHT22;373;49.342;8.146;2023-07-13T16:06:41;26.70;1.00
780;DHT22;373;49.342;8.146;2023-07-13T16:09:10;26.40;1.00
780;DHT22;373;49.342;8.146;2023-07-13T16:11:42;26.50;1.00
780;DHT22;373;49.342;8.146;2023-07-13T16:14:13;26.60;1.00
780;DHT22;373;49.342;8.146;2023-07-13T16:16:42;26.70;1.00
780;DHT22;373;49.342;8.146;2023-07-13T16:19:11;26.80;1.00
780;DHT22;373;49.342;8.146;2023-07-13T16:21:42;26.60;1.00
780;DHT22;373;49.342;8.146;2023-07-13T16:24:18;26.80;1.00
780;DHT22;373;49.342;8.146;2023-07-13T16:26:47;26.80;1.00
780;DHT22;373;49.342;8.146;2023-07-13T16:29:16;26.50;1.00
780;DHT22;373;49.342;8.146;2023-07-13T16:31:56;26.50;1.00
780;DHT22;373;49.342;8.146;2023-07-13T16:34:26;26.70;1.00
780;DHT22;373;49.342;8.146;2023-07-13T16:36:54;26.90;1.00
780;DHT22;373;49.342;8.146;2023-07-13T16:39:21;26.70;1.00
780;DHT22;373;49.342;8.146;2023-07-13T16:41:51;26.70;1.00
780;DHT22;373;49.342;8.146;2023-07-13T16:44:19;26.80;1.00
780;DHT22;373;49.342;8.146;2023-07-13T16:46:50;26.70;1.00
780;DHT22;373;49.342;8.146;2023-07-13T16:49:24;26.80;1.00
780;DHT22;373;49.342;8.146;2023-07-13T16:51:52;26.70;1.00
780;DHT22;373;49.342;8.146;2023-07-13T16:54:21;26.50;1.00
780;DHT22;373;49.342;8.146;2023-07-13T16:56:49;26.30;1.00
780;DHT22;373;49.342;8.146;2023-07-13T16:59:18;26.10;1.00
780;DHT22;373;49.342;8.146;2023-07-13T17:01:46;26.30;1.00
780;DHT22;373;49.342;8.146;2023-07-13T17:04:15;26.30;1.00
780;DHT22;373;49.342;8.146;2023-07-13T17:06:47;26.40;1.00
780;DHT22;373;49.342;8.146;2023-07-13T17:09:15;26.10;1.00
780;DHT22;373;49.342;8.146;2023-07-13T17:11:43;26.10;1.00
780;DHT22;373;49.342;8.146;2023-07-13T17:14:14;26.10;1.00
780;DHT22;373;49.342;8.146;2023-07-13T17:16:45;26.10;1.00
780;DHT22;373;49.342;8.146;2023-07-13T17:19:17;26.10;1.00
780;DHT22;373;49.342;8.146;2023-07-13T17:21:48;26.00;1.00
780;DHT22;373;49.342;8.146;2023-07-13T17:24:18;26.00;1.00
780;DHT22;373;49.342;8.146;2023-07-13T17:26:46;26.00;1.00
780;DHT22;373;49.342;8.146;2023-07-13T17:29:15;26.10;1.00
780;DHT22;373;49.342;8.146;2023-07-13T17:31:43;26.30;1.00
780;DHT22;373;49.342;8.146;2023-07-13T17:34:15;26.30;1.00
780;DHT22;373;49.342;8.146;2023-07-13T17:36:43;26.10;1.00
780;DHT22;373;49.342;8.146;2023-07-13T17:39:15;26.00;1.00
780;DHT22;373;49.342;8.146;2023-07-13T17:41:42;25.80;1.00
780;DHT22;373;49.342;8.146;2023-07-13T17:44:11;25.80;1.00
780;DHT22;373;49.342;8.146;2023-07-13T17:46:39;25.80;1.00
780;DHT22;373;49.342;8.146;2023-07-13T17:49:15;25.80;1.00
780;DHT22;373;49.342;8.146;2023-07-13T17:51:46;25.90;1.00
780;DHT22;373;49.342;8.146;2023-07-13T17:54:15;25.80;1.00
780;DHT22;373;49.342;8.146;2023-07-13T17:56:43;25.70;1.00
780;DHT22;373;49.342;8.146;2023-07-13T17:59:10;25.70;1.00
780;DHT22;373;49.342;8.146;2023-07-13T18:01:38;25.70;1.00
780;DHT22;373;49.342;8.146;2023-07-13T18:04:10;25.70;1.00
780;DHT22;373;49.342;8.146;2023-07-13T18:06:39;25.70;1.00
780;DHT22;373;49.342;8.146;2023-07-13T18:09:19;25.70;1.00
780;DHT22;373;49.342;8.146;2023-07-13T18:11:46;25.70;1.00